createdAt,value
2022-12-01T02:47:12.283Z,101261.20
2022-12-01T02:49:50.319Z,101261.32
2022-12-01T02:50:52.888Z,101264.82
2022-12-01T02:51:56.803Z,101263.39
2022-12-01T02:52:59.583Z,101269.09
2022-12-01T02:54:02.670Z,101257.88
2022-12-01T02:55:05.537Z,101256.48
2022-12-01T02:56:10.756Z,101255.91
2022-12-01T02:57:14.141Z,101258.94
2022-12-01T02:58:17.204Z,101255.72
2022-12-01T02:59:19.587Z,101261.42
2022-12-01T03:00:25.186Z,101254.66
2022-12-01T03:01:46.482Z,101257.73
2022-12-01T03:03:01.615Z,101259.89
2022-12-01T03:04:29.012Z,101251.32
2022-12-01T03:05:44.197Z,101249.14
2022-12-01T03:07:11.407Z,101260.18
2022-12-01T03:08:34.365Z,101259.80
2022-12-01T03:09:56.763Z,101254.94
2022-12-01T03:11:01.010Z,101253.66
2022-12-01T03:12:23.144Z,101253.31
2022-12-01T03:13:44.712Z,101255.74
2022-12-01T03:14:59.914Z,101253.67
2022-12-01T03:16:27.252Z,101249.86
2022-12-01T03:17:48.509Z,101261.20
2022-12-01T03:18:56.634Z,101254.70
2022-12-01T03:20:21.793Z,101251.95
2022-12-01T03:21:27.753Z,101256.16
2022-12-01T03:23:48.327Z,101254.53
2022-12-01T03:24:50.761Z,101254.79
2022-12-01T03:25:53.413Z,101245.83
2022-12-01T03:26:56.588Z,101251.03
2022-12-01T03:28:21.219Z,101251.78
2022-12-01T03:29:10.874Z,101251.63
2022-12-01T03:30:14.497Z,101249.70
2022-12-01T03:31:18.400Z,101253.08
2022-12-01T03:33:53.678Z,101249.61
2022-12-01T03:34:58.829Z,101252.66
2022-12-01T03:36:19.832Z,101240.95
2022-12-01T03:38:37.456Z,101250.94
2022-12-01T03:39:39.886Z,101247.75
2022-12-01T03:40:42.009Z,101245.92
2022-12-01T03:41:47.900Z,101244.06
2022-12-01T03:42:56.153Z,101249.34
2022-12-01T03:44:07.797Z,101253.69
2022-12-01T03:45:19.765Z,101254.39
2022-12-01T03:46:35.688Z,101253.46
2022-12-01T03:47:38.872Z,101251.56
2022-12-01T03:48:41.094Z,101253.30
2022-12-01T03:49:43.389Z,101257.73
2022-12-01T03:52:11.043Z,101253.61
2022-12-01T03:53:23.248Z,101248.69
2022-12-01T03:54:32.200Z,101252.30
2022-12-01T03:55:37.630Z,101258.52
2022-12-01T03:58:03.881Z,101258.03
2022-12-01T03:59:06.771Z,101253.16
2022-12-01T04:00:09.763Z,101261.19
2022-12-01T04:01:13.771Z,101253.16
2022-12-01T04:02:16.828Z,101254.90
2022-12-01T04:03:19.957Z,101249.47
2022-12-01T04:04:23.800Z,101255.71
2022-12-01T04:05:25.857Z,101261.06
2022-12-01T04:06:28.080Z,101260.98
2022-12-01T04:07:30.210Z,101264.53
2022-12-01T04:08:32.375Z,101263.59
2022-12-01T04:09:34.619Z,101253.73
2022-12-01T04:10:36.941Z,101259.09
2022-12-01T04:11:39.034Z,101261.73
2022-12-01T04:12:41.200Z,101262.61
2022-12-01T04:13:44.554Z,101268.83
2022-12-01T04:14:48.152Z,101259.05
2022-12-01T04:15:51.703Z,101256.49
2022-12-01T04:16:54.077Z,101256.49
2022-12-01T04:17:56.132Z,101264.28
2022-12-01T04:18:58.117Z,101261.61
2022-12-01T04:20:00.193Z,101263.31
2022-12-01T04:21:03.530Z,101258.84
2022-12-01T04:22:07.727Z,101257.88
2022-12-01T04:23:10.303Z,101257.03
2022-12-01T04:24:13.155Z,101260.56
2022-12-01T04:25:15.766Z,101263.23
2022-12-01T04:26:17.857Z,101261.45
2022-12-01T04:27:19.956Z,101268.55
2022-12-01T04:28:22.041Z,101258.69
2022-12-01T04:29:24.129Z,101261.38
2022-12-01T04:30:26.204Z,101257.84
2022-12-01T04:31:28.589Z,101268.55
2022-12-01T04:32:31.241Z,101266.81
2022-12-01T04:33:34.572Z,101264.13
2022-12-01T04:34:36.717Z,101267.66
2022-12-01T04:35:38.803Z,101268.59
2022-12-01T04:36:40.972Z,101263.23
2022-12-01T04:37:43.052Z,101263.23
2022-12-01T04:38:45.409Z,101268.59
2022-12-01T04:39:48.791Z,101263.23
2022-12-01T04:40:51.261Z,101268.59
2022-12-01T04:41:53.248Z,101259.63
2022-12-01T04:42:55.540Z,101265.92
2022-12-01T04:43:57.643Z,101271.28
2022-12-01T04:44:59.957Z,101260.52
2022-12-01T04:46:03.614Z,101264.98
2022-12-01T04:47:06.536Z,101263.23
2022-12-01T04:48:08.810Z,101263.23
2022-12-01T04:49:11.711Z,101260.56
2022-12-01T04:50:14.307Z,101265.92
2022-12-01T04:51:16.647Z,101264.13
2022-12-01T04:52:18.743Z,101272.16
2022-12-01T04:53:20.821Z,101271.28
2022-12-01T04:54:23.069Z,101270.34
2022-12-01T04:55:26.926Z,101267.66
2022-12-01T04:56:29.962Z,101268.55
2022-12-01T04:57:32.538Z,101273.02
2022-12-01T04:58:35.619Z,101272.09
2022-12-01T04:59:37.933Z,101264.05
2022-12-01T05:00:40.676Z,101264.05
2022-12-01T05:01:43.155Z,101272.02
2022-12-01T05:02:46.154Z,101273.76
2022-12-01T05:03:48.736Z,101267.51
2022-12-01T05:04:51.088Z,101269.33
2022-12-01T05:07:32.444Z,101274.95
2022-12-01T05:08:34.624Z,101270.11
2022-12-01T05:09:36.970Z,101271.94
2022-12-01T05:10:39.275Z,101273.76
2022-12-01T05:11:42.903Z,101271.08
2022-12-01T05:12:45.434Z,101265.64
2022-12-01T05:13:47.851Z,101272.79
2022-12-01T05:14:51.724Z,101267.59
2022-12-01T05:15:54.447Z,101267.59
2022-12-01T05:16:56.839Z,101274.46
2022-12-01T05:17:58.948Z,101269.09
2022-12-01T05:19:03.104Z,101271.78
2022-12-01T05:20:06.506Z,101269.98
2022-12-01T05:21:10.266Z,101274.37
2022-12-01T05:22:12.402Z,101274.37
2022-12-01T05:23:17.022Z,101274.37
2022-12-01T05:24:19.911Z,101274.37
2022-12-01T05:25:22.048Z,101280.63
2022-12-01T05:26:25.222Z,101283.23
2022-12-01T05:27:28.712Z,101285.91
2022-12-01T05:28:31.309Z,101289.45
2022-12-01T05:29:33.447Z,101277.80
2022-12-01T05:30:35.558Z,101282.30
2022-12-01T05:31:37.715Z,101282.30
2022-12-01T05:32:40.037Z,101280.47
2022-12-01T05:33:42.660Z,101278.65
2022-12-01T05:34:45.295Z,101283.08
2022-12-01T05:35:48.496Z,101283.08
2022-12-01T05:36:50.648Z,101284.90
2022-12-01T05:37:52.686Z,101285.75
2022-12-01T05:38:54.983Z,101283.97
2022-12-01T05:39:57.355Z,101283.97
2022-12-01T05:41:00.671Z,101283.97
2022-12-01T05:42:03.469Z,101283.97
2022-12-01T05:43:06.068Z,101283.97
2022-12-01T05:44:08.123Z,101289.25
2022-12-01T05:45:11.416Z,101285.67
2022-12-01T05:46:14.024Z,101291.92
2022-12-01T05:47:16.259Z,101290.10
2022-12-01T05:48:18.480Z,101291.92
2022-12-01T05:49:20.694Z,101294.61
2022-12-01T05:50:23.483Z,101300.82
2022-12-01T05:51:26.510Z,101291.92
2022-12-01T05:52:28.635Z,101293.64
2022-12-01T05:53:31.282Z,101292.78
2022-12-01T05:54:34.793Z,101294.61
2022-12-01T05:55:36.890Z,101293.64
2022-12-01T05:56:39.620Z,101299.00
2022-12-01T05:57:41.723Z,101295.47
2022-12-01T05:58:43.736Z,101293.64
2022-12-01T05:59:45.831Z,101290.96
2022-12-01T06:00:48.341Z,101292.70
2022-12-01T06:01:50.602Z,101291.84
2022-12-01T06:02:53.143Z,101291.84
2022-12-01T06:03:55.352Z,101295.47
2022-12-01T06:04:58.072Z,101296.31
2022-12-01T06:06:00.247Z,101294.61
2022-12-01T06:07:04.544Z,101295.47
2022-12-01T06:08:06.663Z,101294.61
2022-12-01T06:09:09.276Z,101292.78
2022-12-01T06:10:12.279Z,101292.78
2022-12-01T06:11:14.449Z,101292.78
2022-12-01T06:12:16.558Z,101303.50
2022-12-01T06:13:18.764Z,101300.82
2022-12-01T06:14:20.834Z,101297.28
2022-12-01T06:15:23.473Z,101307.04
2022-12-01T06:16:25.911Z,101309.72
2022-12-01T06:17:28.723Z,101299.97
2022-12-01T06:18:32.306Z,101302.65
2022-12-01T06:19:35.421Z,101303.50
2022-12-01T06:20:37.499Z,101303.50
2022-12-01T06:21:40.618Z,101306.19
2022-12-01T06:22:42.745Z,101301.68
2022-12-01T06:23:45.691Z,101311.55
2022-12-01T06:24:48.693Z,101304.44
2022-12-01T06:25:51.296Z,101306.19
2022-12-01T06:26:53.526Z,101305.33
2022-12-01T06:29:09.515Z,101304.70
2022-12-01T06:30:13.025Z,101307.04
2022-12-01T10:23:10.315Z,101242.59
2022-12-01T10:25:58.622Z,101249.50
2022-12-01T10:27:04.974Z,101258.66
2022-12-01T10:28:13.887Z,101240.44
2022-12-01T10:30:41.138Z,101247.75
2022-12-01T10:31:51.138Z,101252.12
2022-12-01T10:32:56.211Z,101253.45
2022-12-01T10:34:02.597Z,101243.20
2022-12-01T10:35:05.072Z,101249.83
2022-12-01T10:36:09.671Z,101248.47
2022-12-01T10:37:22.671Z,101243.61
2022-12-01T10:38:26.382Z,101246.75
2022-12-01T10:39:37.580Z,101240.91
2022-12-01T10:40:41.370Z,101242.31
2022-12-01T10:41:45.014Z,101237.48
2022-12-01T10:42:50.841Z,101233.55
2022-12-01T10:43:58.659Z,101234.05
2022-12-01T10:45:05.580Z,101235.55
2022-12-01T10:46:23.558Z,101230.84
2022-12-01T10:47:28.172Z,101227.91
2022-12-01T10:48:31.387Z,101229.42
2022-12-01T10:49:38.375Z,101226.48
2022-12-01T10:50:45.778Z,101227.11
2022-12-01T10:53:17.348Z,101216.53
2022-12-01T10:54:20.272Z,101219.54
2022-12-01T10:55:26.224Z,101224.75
2022-12-01T10:56:28.354Z,101225.57
2022-12-01T10:57:30.560Z,101228.97
2022-12-01T10:58:33.641Z,101219.87
2022-12-01T10:59:39.869Z,101224.23
2022-12-01T11:00:58.998Z,101225.84
2022-12-01T11:01:47.494Z,101230.19
2022-12-01T11:02:50.319Z,101227.38
2022-12-01T11:03:59.246Z,101230.88
2022-12-01T11:05:05.823Z,101225.45
2022-12-01T11:06:08.771Z,101219.16
2022-12-01T11:07:28.886Z,101223.57
2022-12-01T11:08:38.021Z,101219.97
2022-12-01T11:09:40.195Z,101223.50
2022-12-01T11:10:42.280Z,101225.18
2022-12-01T11:11:44.373Z,101226.03
2022-12-01T11:13:00.931Z,101197.97
2022-12-01T11:14:06.311Z,101218.77
2022-12-01T11:15:26.899Z,101216.95
2022-12-01T11:18:01.656Z,101217.23
2022-12-01T11:19:10.841Z,101213.20
2022-12-01T11:20:27.004Z,101209.67
2022-12-01T11:21:29.545Z,101207.85
2022-12-01T11:22:31.918Z,101208.67
2022-12-01T11:23:38.965Z,101213.09
2022-12-01T11:24:43.117Z,101214.80
2022-12-01T11:27:25.506Z,101204.49
2022-12-01T11:28:27.851Z,101206.71
2022-12-01T11:29:35.786Z,101215.63
2022-12-01T11:30:40.209Z,101213.88
2022-12-01T11:31:45.185Z,101214.70
2022-12-01T11:32:53.351Z,101206.71
2022-12-01T11:33:55.874Z,101215.63
2022-12-01T11:35:03.079Z,101216.55
2022-12-01T11:36:06.220Z,101208.45
2022-12-01T11:37:10.727Z,101208.45
2022-12-01T11:38:32.080Z,101206.67
2022-12-01T11:39:37.229Z,101204.86
2022-12-01T11:42:00.274Z,101209.73
2022-12-01T11:43:04.358Z,101202.18
2022-12-01T11:44:28.633Z,101209.34
2022-12-01T11:45:23.620Z,101203.11
2022-12-01T11:46:28.578Z,101198.65
2022-12-01T11:47:31.650Z,101203.03
2022-12-01T11:48:34.346Z,101197.69
2022-12-01T11:49:40.081Z,101203.92
2022-12-01T11:50:42.566Z,101208.31
2022-12-01T11:51:45.415Z,101198.50
2022-12-01T11:52:47.672Z,101195.83
2022-12-01T11:53:50.112Z,101200.25
2022-12-01T11:54:57.224Z,101199.29
2022-12-01T11:56:24.075Z,101197.43
2022-12-01T11:57:35.485Z,101194.69
2022-12-01T11:58:32.120Z,101194.54
2022-12-01T11:59:34.290Z,101202.48
2022-12-01T12:02:08.116Z,101186.03
2022-12-01T12:04:45.907Z,101193.31
2022-12-01T12:06:38.947Z,101199.22
2022-12-01T12:07:28.765Z,101193.94
2022-12-01T12:08:51.632Z,101193.16
2022-12-01T12:10:12.927Z,101199.44
2022-12-01T12:11:24.963Z,101199.50
2022-12-01T12:12:46.901Z,101200.44
2022-12-01T12:14:19.843Z,101190.73
2022-12-01T12:15:35.104Z,101199.72
2022-12-01T12:16:47.234Z,101199.76
2022-12-01T12:18:20.045Z,101188.28
2022-12-01T12:20:06.093Z,101198.12
2022-12-01T12:20:50.143Z,101189.28
2022-12-01T12:22:14.681Z,101187.53
2022-12-01T12:23:32.841Z,101187.60
2022-12-01T12:24:55.012Z,101189.49
2022-12-01T12:26:21.154Z,101189.49
2022-12-01T12:27:36.176Z,101187.74
2022-12-01T12:28:43.417Z,101185.92
2022-12-01T12:30:08.858Z,101192.02
2022-12-01T12:31:14.876Z,101190.09
2022-12-01T12:32:40.061Z,101189.95
2022-12-01T12:34:06.838Z,101194.41
2022-12-01T12:35:21.783Z,101192.70
2022-12-01T12:36:39.933Z,101190.95
2022-12-01T12:39:26.598Z,101189.55
2022-12-01T12:40:51.179Z,101189.95
2022-12-01T12:41:56.306Z,101197.05
2022-12-01T12:43:18.841Z,101188.06
2022-12-01T12:44:49.315Z,101192.48
2022-12-01T12:46:15.278Z,101191.55
2022-12-01T12:47:40.903Z,101191.48
2022-12-01T12:50:07.397Z,101195.97
2022-12-01T12:51:20.988Z,101198.65
2022-12-01T12:52:33.746Z,101202.97
2022-12-01T12:55:14.293Z,101195.28
2022-12-01T12:56:18.499Z,101203.85
2022-12-01T12:58:41.079Z,101197.21
2022-12-01T12:59:49.506Z,101208.38
2022-12-01T13:00:55.798Z,101206.67
2022-12-01T13:02:13.738Z,101204.00
2022-12-01T13:04:42.533Z,101209.66
2022-12-01T13:05:49.498Z,101209.20
2022-12-01T13:06:59.751Z,101210.88
2022-12-01T13:08:15.821Z,101211.59
2022-12-01T13:09:23.767Z,101203.31
2022-12-01T13:10:29.793Z,101211.05
2022-12-01T13:11:36.166Z,101210.00
2022-12-01T13:12:40.937Z,101204.43
2022-12-01T13:13:57.139Z,101204.23
2022-12-01T13:16:33.926Z,101205.05
2022-12-01T13:17:37.734Z,101205.39
2022-12-01T13:18:52.137Z,101203.45
2022-12-01T13:19:54.415Z,101203.22
2022-12-01T13:20:56.512Z,101200.47
2022-12-01T13:21:59.411Z,101196.71
2022-12-01T13:23:02.627Z,101205.56
2022-12-01T13:24:05.386Z,101200.98
2022-12-01T13:25:09.767Z,101204.39
2022-12-01T13:26:14.395Z,101201.56
2022-12-01T13:27:20.577Z,101198.81
2022-12-01T13:28:28.362Z,101208.44
2022-12-01T13:29:33.396Z,101202.07
2022-12-01T13:30:35.607Z,101204.67
2022-12-01T13:31:42.367Z,101205.41
2022-12-01T13:32:44.904Z,101209.80
2022-12-01T13:34:03.634Z,101200.75
2022-12-01T13:35:26.414Z,101192.64
2022-12-01T13:36:46.139Z,101202.34
2022-12-01T13:37:36.286Z,101199.58
2022-12-01T13:38:42.185Z,101203.07
2022-12-01T13:39:45.603Z,101198.57
2022-12-01T13:40:48.475Z,101194.95
2022-12-01T13:42:00.709Z,101191.34
2022-12-01T13:43:10.292Z,101195.73
2022-12-01T13:44:40.503Z,101193.90
2022-12-01T13:45:43.151Z,101184.03
2022-12-01T13:46:49.521Z,101192.00
2022-12-01T13:47:53.990Z,101194.62
2022-12-01T13:48:57.942Z,101199.02
2022-12-01T13:50:20.273Z,101191.79
2022-12-01T13:51:23.598Z,101193.53
2022-12-01T13:52:28.960Z,101197.92
2022-12-01T13:53:35.915Z,101192.56
2022-12-01T13:54:40.340Z,101196.98
2022-12-01T13:55:58.625Z,101192.48
2022-12-01T13:57:03.222Z,101197.77
2022-12-01T13:58:09.264Z,101194.07
2022-12-01T14:00:47.424Z,101192.53
2022-12-01T14:01:51.036Z,101195.66
2022-12-01T14:03:17.128Z,101192.13
2022-12-01T14:04:26.134Z,101190.30
2022-12-01T14:05:56.348Z,101195.58
2022-12-01T14:08:29.455Z,101187.81
2022-12-01T14:09:36.323Z,101186.60
2022-12-01T14:10:38.608Z,101196.39
2022-12-01T14:11:40.714Z,101188.34
2022-12-01T14:12:44.097Z,101187.41
2022-12-01T14:13:53.850Z,101197.16
2022-12-01T14:14:59.780Z,101191.72
2022-12-01T14:16:02.961Z,101190.78
2022-12-01T14:17:06.476Z,101199.63
2022-12-01T14:18:27.671Z,101190.63
2022-12-01T14:19:34.652Z,101195.05
2022-12-01T14:20:40.703Z,101188.83
2022-12-01T14:23:16.820Z,101195.45
2022-12-01T14:24:23.708Z,101200.41
2022-12-01T14:25:27.187Z,101200.41
2022-12-01T14:26:29.713Z,101200.33
2022-12-01T14:27:37.676Z,101199.39
2022-12-01T14:29:01.674Z,101202.92
2022-12-01T14:30:43.830Z,101201.98
2022-12-01T14:31:55.516Z,101200.16
2022-12-01T14:34:37.373Z,101196.09
2022-12-01T14:35:39.503Z,101201.91
2022-12-01T14:36:43.284Z,101201.05
2022-12-01T14:37:47.693Z,101206.41
2022-12-01T14:39:02.910Z,101201.91
2022-12-01T14:41:24.526Z,101204.91
2022-12-01T14:42:38.415Z,101199.95
2022-12-01T14:43:41.048Z,101199.95
2022-12-01T14:44:47.680Z,101205.31
2022-12-01T14:45:56.109Z,101206.17
2022-12-01T14:47:07.334Z,101204.38
2022-12-01T14:48:12.303Z,101206.09
2022-12-01T14:49:18.957Z,101199.80
2022-12-01T14:50:46.596Z,101204.22
2022-12-01T14:51:49.312Z,101197.92
2022-12-01T14:52:55.062Z,101204.13
2022-12-01T14:53:57.866Z,101199.63
2022-12-01T18:09:47.818Z,101150.73
2022-12-01T18:10:50.159Z,101151.76
2022-12-01T18:11:54.500Z,101146.87
2022-12-01T18:12:56.720Z,101144.63
2022-12-01T18:14:02.826Z,101148.70
2022-12-01T18:15:06.758Z,101143.86
2022-12-01T18:16:14.547Z,101142.45
2022-12-01T18:17:17.675Z,101142.06
2022-12-01T18:18:19.814Z,101134.46
2022-12-01T18:19:21.917Z,101143.81
2022-12-01T18:20:24.175Z,101147.84
2022-12-01T18:21:27.201Z,101141.24
2022-12-01T18:22:29.370Z,101146.20
2022-12-01T18:23:33.478Z,101140.47
2022-12-01T18:24:36.372Z,101148.97
2022-12-01T18:25:39.592Z,101151.28
2022-12-01T18:26:43.683Z,101146.50
2022-12-01T18:27:46.679Z,101144.38
2022-12-01T18:33:14.874Z,101148.17
2022-12-01T18:35:19.857Z,101148.64
2022-12-01T18:36:23.910Z,101146.64
2022-12-01T18:37:27.218Z,101152.67
2022-12-01T18:38:30.375Z,101147.11
2022-12-01T18:39:34.605Z,101146.03
2022-12-01T18:40:38.485Z,101137.80
2022-12-01T18:41:41.028Z,101144.75
2022-12-01T18:42:44.217Z,101145.41
2022-12-01T18:43:47.619Z,101138.99
2022-12-01T18:46:54.994Z,101142.97
2022-12-01T18:47:59.219Z,101135.77
2022-12-01T18:49:03.341Z,101145.45
2022-12-01T18:51:09.610Z,101135.42
2022-12-01T18:52:12.612Z,101145.98
2022-12-01T18:53:16.151Z,101143.15
2022-12-01T18:54:18.187Z,101143.15
2022-12-01T18:55:20.527Z,101147.53
2022-12-01T18:56:23.350Z,101140.36
2022-12-01T18:57:25.986Z,101141.17
2022-12-01T18:58:29.764Z,101141.09
2022-12-01T18:59:31.996Z,101142.88
2022-12-01T19:00:36.596Z,101141.02
2022-12-01T19:01:41.164Z,101142.77
2022-12-01T19:02:44.041Z,101145.37
2022-12-01T19:03:46.424Z,101142.69
2022-12-01T19:04:49.070Z,101143.62
2022-12-01T19:05:51.984Z,101145.37
2022-12-01T19:06:55.957Z,101142.61
2022-12-01T19:08:00.027Z,101144.36
2022-12-01T19:09:03.542Z,101151.34
2022-12-01T19:10:07.404Z,101144.20
2022-12-01T19:11:09.733Z,101155.77
2022-12-01T19:12:12.027Z,101153.91
2022-12-01T19:13:14.728Z,101153.91
2022-12-01T19:14:18.825Z,101153.02
2022-12-01T19:15:22.171Z,101147.66
2022-12-01T19:16:28.044Z,101152.16
2022-12-01T19:17:31.348Z,101150.41
2022-12-01T19:18:35.683Z,101146.00
2022-12-01T19:19:37.931Z,101153.17
2022-12-01T19:20:42.524Z,101154.09
2022-12-01T19:21:46.339Z,101150.64
2022-12-01T19:22:48.648Z,101154.17
2022-12-01T19:23:51.560Z,101150.72
2022-12-01T19:24:55.901Z,101149.05
2022-12-01T19:26:01.788Z,101152.66
2022-12-01T19:27:05.426Z,101152.73
2022-12-01T19:28:07.600Z,101153.73
2022-12-01T19:29:10.924Z,101151.14
2022-12-01T19:30:15.608Z,101149.43
2022-12-01T19:31:20.676Z,101150.36
2022-12-01T19:32:24.945Z,101154.94
2022-12-01T19:34:34.450Z,101150.59
2022-12-01T19:38:45.241Z,101151.52
2022-12-01T19:39:52.944Z,101153.11
2022-12-01T19:40:56.212Z,101156.60
2022-12-01T19:41:59.936Z,101160.13
2022-12-01T19:43:03.682Z,101157.53
2022-12-01T19:44:09.131Z,101153.19
2022-12-01T19:45:13.932Z,101155.86
2022-12-01T19:46:19.013Z,101152.33
2022-12-01T19:47:25.661Z,101153.27
2022-12-01T19:49:31.067Z,101158.69
2022-12-01T19:50:34.880Z,101162.29
2022-12-01T19:51:38.122Z,101152.55
2022-12-01T19:52:40.632Z,101162.22
2022-12-01T19:53:43.112Z,101155.79
2022-12-01T19:54:48.895Z,101161.02
2022-12-01T19:55:52.700Z,101157.30
2022-12-01T19:57:01.619Z,101161.58
2022-12-01T19:58:04.079Z,101163.13
2022-12-01T19:59:06.088Z,101159.37
2022-12-01T20:01:17.035Z,101157.28
2022-12-01T20:02:19.797Z,101160.70
2022-12-01T20:03:24.136Z,101156.05
2022-12-01T20:05:30.064Z,101155.78
2022-12-01T20:06:33.415Z,101159.23
2022-12-01T20:07:36.644Z,101150.19
2022-12-01T20:11:53.097Z,101154.22
2022-12-01T20:13:58.436Z,101155.89
2022-12-01T20:15:00.538Z,101158.48
2022-12-01T20:16:04.698Z,101156.63
2022-12-01T20:19:11.677Z,101153.55
2022-12-01T20:20:14.791Z,101157.97
2022-12-01T20:21:22.876Z,101159.64
2022-12-01T20:22:24.999Z,101162.23
2022-12-01T20:23:28.243Z,101163.05
2022-12-01T20:24:31.303Z,101162.08
2022-12-01T20:25:34.178Z,101164.72
2022-12-01T20:26:38.659Z,101162.81
2022-12-01T20:27:40.794Z,101160.98
2022-12-01T20:28:43.786Z,101161.80
2022-12-01T20:29:47.395Z,101157.25
2022-12-01T20:30:50.519Z,101158.06
2022-12-01T20:31:55.599Z,101159.80
2022-12-01T20:32:57.897Z,101156.16
2022-12-01T20:34:04.158Z,101156.08
2022-12-01T20:35:07.201Z,101152.37
2022-12-01T20:36:10.818Z,101160.41
2022-12-01T20:37:14.793Z,101158.55
2022-12-01T20:39:21.088Z,101153.11
2022-12-01T20:40:24.773Z,101161.92
2022-12-01T20:41:27.496Z,101158.30
2022-12-01T20:42:29.605Z,101163.58
2022-12-01T20:45:38.232Z,101160.82
2022-12-01T20:47:43.916Z,101169.67
2022-12-01T20:54:27.436Z,101163.13
2022-12-01T20:55:07.253Z,101171.09
2022-12-01T20:57:13.467Z,101171.01
2022-12-01T20:59:19.092Z,101178.11
2022-12-01T21:00:22.816Z,101179.85
2022-12-01T21:01:26.667Z,101176.20
2022-12-01T21:06:43.588Z,101172.51
2022-12-01T21:08:49.965Z,101177.01
2022-12-01T21:12:59.552Z,101179.53
2022-12-01T21:14:01.666Z,101173.23
2022-12-01T21:15:28.287Z,101182.13
2022-12-01T21:17:40.383Z,101181.19
2022-12-01T21:18:51.802Z,101187.41
2022-12-01T21:20:00.220Z,101182.05
2022-12-01T21:21:06.209Z,101185.61
2022-12-01T21:22:12.613Z,101181.11
2022-12-01T21:23:15.246Z,101182.85
2022-12-01T21:24:18.357Z,101180.17
2022-12-01T21:25:22.415Z,101175.66
2022-12-01T21:26:25.067Z,101173.84
2022-12-01T21:27:28.073Z,101175.66
2022-12-01T21:28:30.211Z,101170.22
2022-12-01T21:29:39.773Z,101176.47
2022-12-01T21:30:42.659Z,101180.00
2022-12-01T21:31:46.297Z,101175.42
2022-12-01T21:32:48.783Z,101179.84
2022-12-01T21:33:51.836Z,101178.91
2022-12-01T21:34:53.985Z,101179.76
2022-12-01T21:35:59.088Z,101175.28
2022-12-01T21:37:04.162Z,101183.33
2022-12-01T21:38:12.310Z,101181.50
2022-12-01T21:39:16.965Z,101188.61
2022-12-01T21:40:26.255Z,101179.59
2022-12-01T21:41:30.210Z,101184.10
2022-12-01T21:42:32.415Z,101179.59
2022-12-01T21:43:38.491Z,101179.55
2022-12-01T21:44:40.655Z,101182.23
2022-12-01T21:45:42.826Z,101178.66
2022-12-01T21:46:45.342Z,101180.40
2022-12-01T21:47:47.410Z,101175.89
2022-12-01T21:48:49.385Z,101176.78
2022-12-01T21:49:54.404Z,101179.46
2022-12-01T21:50:58.926Z,101177.63
2022-12-01T21:52:03.056Z,101179.37
2022-12-01T21:53:15.226Z,101175.81
2022-12-01T21:54:21.129Z,101183.80
2022-12-01T21:55:27.096Z,101181.12
2022-12-01T21:56:30.354Z,101180.15
2022-12-01T21:57:42.835Z,101182.83
2022-12-01T21:58:45.225Z,101175.67
2022-12-01T21:59:48.927Z,101173.84
2022-12-01T22:00:52.072Z,101179.21
2022-12-01T22:01:56.010Z,101171.17
2022-12-01T22:03:33.991Z,101172.02
2022-12-01T22:04:38.039Z,101177.30
2022-12-01T22:06:01.045Z,101175.59
2022-12-01T22:06:53.665Z,101170.31
2022-12-01T22:09:31.201Z,101171.55
2022-12-01T22:10:58.068Z,101173.84
2022-12-01T22:12:16.056Z,101173.00
2022-12-01T22:13:18.898Z,101168.57
2022-12-01T22:14:23.158Z,101165.80
2022-12-01T22:15:31.889Z,101165.89
2022-12-01T22:17:57.798Z,101168.10
2022-12-01T22:19:02.590Z,101165.97
